createdAt,value
2023-03-21T00:01:27.225Z,8.50
2023-03-21T00:05:31.062Z,8.50
2023-03-21T00:09:38.463Z,8.40
2023-03-21T00:13:47.233Z,8.30
2023-03-21T00:18:03.555Z,8.30
2023-03-21T00:22:09.266Z,8.30
2023-03-21T00:26:13.524Z,8.20
2023-03-21T00:30:18.454Z,8.10
2023-03-21T00:34:31.737Z,8.00
2023-03-21T00:38:44.584Z,7.90
2023-03-21T00:42:47.622Z,7.80
2023-03-21T00:47:06.297Z,7.80
2023-03-21T00:51:15.652Z,7.80
2023-03-21T00:55:20.226Z,7.70
2023-03-21T00:59:23.641Z,7.80
2023-03-21T01:03:29.069Z,7.80
2023-03-21T01:07:33.791Z,7.90
2023-03-21T01:11:36.853Z,7.90
2023-03-21T01:15:45.213Z,8.00
2023-03-21T01:19:52.532Z,8.00
2023-03-21T01:23:57.743Z,8.10
2023-03-21T01:28:08.731Z,8.10
2023-03-21T01:32:11.754Z,8.10
2023-03-21T01:36:34.238Z,8.10
2023-03-21T01:40:38.128Z,8.20
2023-03-21T01:44:55.388Z,8.20
2023-03-21T01:49:04.210Z,8.30
2023-03-21T01:53:08.705Z,8.30
2023-03-21T01:57:25.867Z,8.30
2023-03-21T02:01:34.799Z,8.30
2023-03-21T02:05:49.342Z,8.30
2023-03-21T02:09:55.342Z,8.30
2023-03-21T02:14:06.209Z,8.20
2023-03-21T02:18:18.393Z,8.10
2023-03-21T02:22:41.462Z,8.00
2023-03-21T02:27:06.639Z,7.90
2023-03-21T02:31:24.643Z,7.80
2023-03-21T02:35:52.520Z,7.80
2023-03-21T02:40:12.364Z,7.80
2023-03-21T02:44:22.377Z,7.70
2023-03-21T02:48:38.405Z,7.60
2023-03-21T02:52:56.209Z,7.40
2023-03-21T02:57:06.512Z,7.30
2023-03-21T03:01:12.028Z,7.20
2023-03-21T03:05:24.767Z,7.20
2023-03-21T03:09:38.573Z,7.20
2023-03-21T03:13:58.203Z,7.30
2023-03-21T03:18:15.477Z,7.40
2023-03-21T03:22:26.562Z,7.50
2023-03-21T03:26:37.611Z,7.50
2023-03-21T03:30:54.277Z,7.60
2023-03-21T03:35:07.719Z,7.60
2023-03-21T03:39:13.062Z,7.70
2023-03-21T03:43:19.286Z,7.70
2023-03-21T03:47:37.691Z,7.80
2023-03-21T03:51:53.015Z,7.80
2023-03-21T03:55:58.584Z,7.80
2023-03-21T04:00:04.464Z,7.90
2023-03-21T04:04:13.534Z,7.90
2023-03-21T04:08:19.555Z,7.90
2023-03-21T04:12:22.940Z,7.90
2023-03-21T04:16:26.167Z,8.00
2023-03-21T04:20:36.910Z,8.10
2023-03-21T04:24:42.516Z,8.10
2023-03-21T04:28:53.344Z,8.20
2023-03-21T04:32:57.045Z,8.20
2023-03-21T04:37:12.930Z,8.20
2023-03-21T04:41:24.911Z,8.20
2023-03-21T04:45:28.428Z,8.20
2023-03-21T04:49:31.685Z,8.20
2023-03-21T04:53:38.569Z,8.20
2023-03-21T04:57:43.605Z,8.20
2023-03-21T05:01:50.162Z,8.10
2023-03-21T05:05:53.221Z,8.10
2023-03-21T05:10:02.456Z,8.10
2023-03-21T05:14:06.757Z,8.10
2023-03-21T05:18:12.176Z,8.10
2023-03-21T05:22:21.068Z,8.20
2023-03-21T05:26:25.936Z,8.30
2023-03-21T05:30:35.519Z,8.30
2023-03-21T05:34:40.329Z,8.40
2023-03-21T05:38:46.234Z,8.40
2023-03-21T05:42:50.723Z,8.50
2023-03-21T05:46:54.990Z,8.70
2023-03-21T05:50:58.312Z,8.80
2023-03-21T05:55:04.609Z,8.80
2023-03-21T05:59:09.309Z,8.90
2023-03-21T06:03:15.482Z,9.00
2023-03-21T06:07:32.303Z,9.10
2023-03-21T06:11:37.188Z,9.40
2023-03-21T06:15:43.948Z,9.70
2023-03-21T06:19:48.951Z,10.00
2023-03-21T06:23:55.756Z,10.20
2023-03-21T06:27:59.115Z,10.50
2023-03-21T06:32:07.564Z,10.70
2023-03-21T06:36:11.755Z,10.90
2023-03-21T06:40:21.364Z,11.00
2023-03-21T06:44:32.404Z,11.10
2023-03-21T06:48:37.625Z,11.20
2023-03-21T06:52:40.672Z,11.40
2023-03-21T06:56:43.755Z,11.60
2023-03-21T07:00:46.804Z,11.80
2023-03-21T07:04:51.720Z,11.90
2023-03-21T07:08:58.178Z,12.00
2023-03-21T07:13:04.447Z,12.20
2023-03-21T07:17:11.293Z,12.30
2023-03-21T07:21:15.723Z,12.50
2023-03-21T07:25:24.597Z,12.80
2023-03-21T07:29:30.027Z,13.00
2023-03-21T07:33:36.866Z,13.30
2023-03-21T07:37:41.961Z,13.50
2023-03-21T07:41:46.760Z,13.40
2023-03-21T07:45:49.816Z,13.40
2023-03-21T07:49:52.926Z,13.40
2023-03-21T07:53:57.373Z,13.40
2023-03-21T07:58:00.534Z,13.60
2023-03-21T08:02:03.621Z,13.80
2023-03-21T08:06:10.688Z,13.90
2023-03-21T08:10:17.040Z,14.10
2023-03-21T08:14:20.089Z,14.20
2023-03-21T08:18:23.141Z,14.40
2023-03-21T08:22:26.387Z,14.60
2023-03-21T08:26:34.137Z,14.60
2023-03-21T08:30:39.300Z,14.70
2023-03-21T08:34:43.639Z,14.50
2023-03-21T08:38:56.975Z,14.30
2023-03-21T08:43:07.609Z,14.10
2023-03-21T08:47:12.781Z,14.20
2023-03-21T08:51:16.927Z,14.20
2023-03-21T08:55:21.184Z,14.40
2023-03-21T08:59:25.590Z,14.70
2023-03-21T09:03:32.687Z,15.00
2023-03-21T09:07:39.966Z,15.20
2023-03-21T09:11:43.749Z,15.50
2023-03-21T09:15:48.423Z,15.80
2023-03-21T09:19:53.475Z,16.00
2023-03-21T09:23:59.452Z,16.60
2023-03-21T09:28:05.299Z,17.10
2023-03-21T09:32:10.089Z,17.70
2023-03-21T09:36:14.613Z,18.30
2023-03-21T09:40:21.450Z,18.30
2023-03-21T09:44:33.037Z,18.40
2023-03-21T09:48:56.112Z,18.50
2023-03-21T09:53:01.904Z,18.80
2023-03-21T09:57:20.375Z,19.30
2023-03-21T10:01:33.112Z,19.50
2023-03-21T10:05:47.040Z,19.30
2023-03-21T10:09:53.554Z,19.50
2023-03-21T10:14:04.783Z,19.50
2023-03-21T10:18:09.321Z,19.00
2023-03-21T10:22:13.898Z,18.60
2023-03-21T10:26:20.335Z,18.70
2023-03-21T10:30:36.628Z,18.60
2023-03-21T10:34:43.809Z,18.70
2023-03-21T10:38:50.145Z,18.30
2023-03-21T10:42:56.412Z,18.20
2023-03-21T10:47:04.645Z,18.20
2023-03-21T10:51:10.320Z,18.30
2023-03-21T10:55:25.310Z,18.30
2023-03-21T10:59:35.917Z,18.30
2023-03-21T11:03:45.163Z,18.10
2023-03-21T11:07:56.931Z,18.30
2023-03-21T11:12:11.097Z,18.40
2023-03-21T11:16:24.524Z,18.60
2023-03-21T11:20:30.875Z,18.70
2023-03-21T11:24:35.322Z,18.70
2023-03-21T11:28:45.031Z,18.70
2023-03-21T11:32:53.376Z,18.50
2023-03-21T11:37:04.077Z,18.60
2023-03-21T11:41:08.215Z,18.70
2023-03-21T11:45:17.525Z,18.60
2023-03-21T11:49:25.515Z,18.60
2023-03-21T11:53:40.661Z,18.80
2023-03-21T11:57:50.300Z,18.70
2023-03-21T12:02:55.473Z,18.40
2023-03-21T12:07:04.054Z,18.50
2023-03-21T12:11:16.721Z,18.40
2023-03-21T12:15:25.333Z,18.30
2023-03-21T12:19:56.350Z,18.20
2023-03-21T12:24:10.458Z,18.10
2023-03-21T12:28:33.292Z,18.10
2023-03-21T12:32:55.868Z,18.10
2023-03-21T12:37:13.466Z,18.10
2023-03-21T12:41:26.688Z,18.20
2023-03-21T12:45:45.870Z,18.10
2023-03-21T12:50:01.571Z,18.00
2023-03-21T12:54:19.252Z,18.00
2023-03-21T12:58:25.867Z,18.00
2023-03-21T13:02:32.554Z,18.10
2023-03-21T13:06:39.161Z,18.20
2023-03-21T13:10:46.673Z,18.30
2023-03-21T13:15:03.529Z,18.20
2023-03-21T13:19:17.164Z,18.20
2023-03-21T13:23:22.717Z,18.40
2023-03-21T13:27:32.661Z,18.60
2023-03-21T13:31:51.075Z,18.70
2023-03-21T13:36:05.700Z,18.60
2023-03-21T13:40:22.642Z,18.70
2023-03-21T13:44:34.357Z,18.80
2023-03-21T13:48:58.218Z,18.90
2023-03-21T13:53:31.780Z,19.10
2023-03-21T13:57:40.682Z,19.30
2023-03-21T14:02:06.276Z,19.40
2023-03-21T14:06:16.774Z,19.60
2023-03-21T14:10:26.283Z,19.60
2023-03-21T14:14:36.660Z,19.40
2023-03-21T14:18:54.067Z,19.50
2023-03-21T14:23:01.149Z,19.80
2023-03-21T14:27:10.033Z,20.10
2023-03-21T14:31:17.186Z,20.30
2023-03-21T14:35:22.651Z,20.50
2023-03-21T14:39:32.962Z,20.30
2023-03-21T14:43:42.040Z,20.30
2023-03-21T14:47:56.243Z,20.50
2023-03-21T14:52:07.037Z,20.60
2023-03-21T14:56:21.069Z,20.40
2023-03-21T15:00:27.498Z,20.10
2023-03-21T15:04:32.074Z,20.00
2023-03-21T15:08:37.088Z,19.90
2023-03-21T15:12:50.513Z,19.80
2023-03-21T15:16:56.071Z,19.60
2023-03-21T15:21:03.923Z,19.50
2023-03-21T15:25:14.983Z,19.40
2023-03-21T15:29:19.579Z,19.30
2023-03-21T15:33:27.053Z,19.30
2023-03-21T15:37:38.211Z,19.20
2023-03-21T15:41:43.374Z,19.10
2023-03-21T15:45:50.381Z,19.00
2023-03-21T15:49:55.823Z,18.80
2023-03-21T15:53:59.686Z,18.70
2023-03-21T15:58:17.112Z,18.60
2023-03-21T16:02:28.583Z,18.50
2023-03-21T16:06:34.248Z,18.30
2023-03-21T16:10:41.449Z,18.10
2023-03-21T16:14:48.976Z,17.80
2023-03-21T16:18:57.976Z,17.70
2023-03-21T16:23:01.325Z,17.60
2023-03-21T16:27:04.416Z,17.50
2023-03-21T16:31:14.866Z,17.40
2023-03-21T16:35:18.829Z,17.20
2023-03-21T16:39:27.190Z,17.10
2023-03-21T16:43:32.955Z,17.00
2023-03-21T16:47:40.259Z,16.90
2023-03-21T16:51:45.297Z,16.90
2023-03-21T16:55:48.802Z,16.80
2023-03-21T16:59:52.434Z,16.60
2023-03-21T17:03:57.898Z,16.50
2023-03-21T17:08:06.682Z,16.40
2023-03-21T17:12:15.761Z,16.30
2023-03-21T17:16:26.542Z,16.20
2023-03-21T17:20:34.980Z,16.10
2023-03-21T17:24:39.054Z,16.00
2023-03-21T17:28:46.849Z,15.90
2023-03-21T17:32:50.828Z,15.70
2023-03-21T17:37:00.086Z,15.60
2023-03-21T17:41:07.119Z,15.40
2023-03-21T17:45:11.065Z,15.30
2023-03-21T17:49:17.025Z,15.10
2023-03-21T17:53:25.319Z,14.90
2023-03-21T17:57:31.281Z,14.70
2023-03-21T18:01:37.448Z,14.50
2023-03-21T18:05:41.095Z,14.40
2023-03-21T18:09:45.735Z,14.20
2023-03-21T18:13:51.443Z,14.10
2023-03-21T18:17:55.364Z,13.90
2023-03-21T18:21:58.379Z,13.80
2023-03-21T18:26:05.166Z,13.70
2023-03-21T18:30:32.767Z,13.60
2023-03-21T18:34:35.479Z,13.50
2023-03-21T18:38:38.548Z,13.40
2023-03-21T18:43:39.476Z,13.40
2023-03-21T18:47:10.821Z,13.20
2023-03-21T18:51:15.864Z,13.10
2023-03-21T18:55:25.638Z,12.80
2023-03-21T18:59:37.424Z,12.50
2023-03-21T19:03:43.061Z,12.40
2023-03-21T19:07:48.082Z,12.30
2023-03-21T19:11:52.264Z,12.40
2023-03-21T19:15:58.221Z,12.40
2023-03-21T19:20:03.046Z,12.50
2023-03-21T19:24:26.934Z,12.60
2023-03-21T19:28:31.879Z,12.60
2023-03-21T19:32:36.743Z,12.60
2023-03-21T19:36:45.682Z,12.70
2023-03-21T19:40:52.298Z,12.60
2023-03-21T19:44:55.311Z,12.50
2023-03-21T19:49:04.087Z,12.50
2023-03-21T19:53:07.167Z,12.40
2023-03-21T19:57:10.470Z,12.30
2023-03-21T20:01:13.609Z,12.20
2023-03-21T20:05:27.826Z,12.10
2023-03-21T20:09:50.540Z,12.00
2023-03-21T20:13:54.512Z,11.90
2023-03-21T20:17:57.578Z,11.80
2023-03-21T20:22:02.971Z,11.70
2023-03-21T20:26:09.992Z,11.60
2023-03-21T20:30:19.859Z,11.60
2023-03-21T20:34:23.033Z,11.50
2023-03-21T20:38:27.508Z,11.50
2023-03-21T20:42:31.523Z,11.40
2023-03-21T20:46:38.600Z,11.30
2023-03-21T20:50:42.390Z,11.10
2023-03-21T20:54:47.734Z,11.10
2023-03-21T20:59:04.853Z,10.90
2023-03-21T21:03:15.968Z,10.80
2023-03-21T21:07:21.113Z,10.80
2023-03-21T21:15:52.033Z,10.70
2023-03-21T21:19:55.465Z,10.60
2023-03-21T21:24:00.224Z,10.70
2023-03-21T21:28:11.885Z,10.70
2023-03-21T21:32:16.900Z,10.80
2023-03-21T21:36:21.117Z,10.90
2023-03-21T21:40:26.056Z,11.00
2023-03-21T21:44:32.794Z,11.00
2023-03-21T21:48:36.459Z,11.00
2023-03-21T21:52:44.034Z,10.90
2023-03-21T21:56:48.739Z,10.90
2023-03-21T22:00:59.915Z,10.90
2023-03-21T22:05:02.954Z,10.80
2023-03-21T22:09:07.086Z,10.80
2023-03-21T22:13:10.486Z,10.80
2023-03-21T22:17:19.349Z,10.80
2023-03-21T22:21:22.500Z,10.80
2023-03-21T22:25:25.725Z,10.80
2023-03-21T22:29:29.757Z,10.90
2023-03-21T22:33:34.576Z,11.00
2023-03-21T22:37:39.644Z,11.10
2023-03-21T22:41:42.990Z,11.10
2023-03-21T22:45:46.911Z,11.10
2023-03-21T22:49:51.762Z,11.00
2023-03-21T22:53:55.320Z,11.00
2023-03-21T22:57:58.472Z,10.90
2023-03-21T23:02:03.699Z,10.90
2023-03-21T23:06:09.051Z,10.80
2023-03-21T23:10:13.203Z,10.80
2023-03-21T23:14:16.988Z,10.70
2023-03-21T23:18:22.674Z,10.70
2023-03-21T23:22:29.179Z,10.70
2023-03-21T23:26:33.009Z,10.60
2023-03-21T23:30:40.143Z,10.60
2023-03-21T23:34:43.444Z,10.50
2023-03-21T23:38:50.948Z,10.50
2023-03-21T23:42:54.053Z,10.40
2023-03-21T23:46:59.323Z,10.40
2023-03-21T23:51:04.603Z,10.40
2023-03-21T23:55:09.974Z,10.40
2023-03-21T23:59:15.633Z,10.40
